sensor_id;sensor_type;location;lat;lon;timestamp;temperature;humidity
16505;HTU21D;8365;51.030;4.696;2023-09-12T00:01:52;22.21;118.99
16505;HTU21D;8365;51.030;4.696;2023-09-12T00:04:23;22.28;118.99
16505;HTU21D;8365;51.030;4.696;2023-09-12T00:06:53;22.21;118.99
16505;HTU21D;8365;51.030;4.696;2023-09-12T00:09:24;22.32;118.99
16505;HTU21D;8365;51.030;4.696;2023-09-12T00:11:54;22.35;118.99
16505;HTU21D;8365;51.030;4.696;2023-09-12T00:14:25;22.41;118.99
16505;HTU21D;8365;51.030;4.696;2023-09-12T00:16:55;22.39;118.99
16505;HTU21D;8365;51.030;4.696;2023-09-12T00:19:26;22.36;118.99
16505;HTU21D;8365;51.030;4.696;2023-09-12T00:21:58;22.39;118.99
16505;HTU21D;8365;51.030;4.696;2023-09-12T00:24:31;22.22;118.99
16505;HTU21D;8365;51.030;4.696;2023-09-12T00:27:04;21.91;118.99
16505;HTU21D;8365;51.030;4.696;2023-09-12T00:29:36;21.81;118.99
16505;HTU21D;8365;51.030;4.696;2023-09-12T00:32:06;21.58;118.99
16505;HTU21D;8365;51.030;4.696;2023-09-12T00:34:39;21.66;118.99
16505;HTU21D;8365;51.030;4.696;2023-09-12T00:37:09;21.81;118.99
16505;HTU21D;8365;51.030;4.696;2023-09-12T00:39:40;21.85;118.99
16505;HTU21D;8365;51.030;4.696;2023-09-12T00:42:10;21.89;118.99
16505;HTU21D;8365;51.030;4.696;2023-09-12T00:44:43;21.87;118.99
16505;HTU21D;8365;51.030;4.696;2023-09-12T00:47:16;21.77;118.99
16505;HTU21D;8365;51.030;4.696;2023-09-12T00:49:48;21.80;118.99
16505;HTU21D;8365;51.030;4.696;2023-09-12T00:52:20;21.85;118.99
16505;HTU21D;8365;51.030;4.696;2023-09-12T00:54:52;21.98;118.99
16505;HTU21D;8365;51.030;4.696;2023-09-12T00:57:26;22.04;118.99
16505;HTU21D;8365;51.030;4.696;2023-09-12T00:59:57;22.13;118.99
16505;HTU21D;8365;51.030;4.696;2023-09-12T01:02:28;22.20;118.99
16505;HTU21D;8365;51.030;4.696;2023-09-12T01:04:59;22.21;118.99
16505;HTU21D;8365;51.030;4.696;2023-09-12T01:07:30;22.21;118.99
16505;HTU21D;8365;51.030;4.696;2023-09-12T01:10:00;22.12;118.99
16505;HTU21D;8365;51.030;4.696;2023-09-12T01:12:31;22.17;118.99
16505;HTU21D;8365;51.030;4.696;2023-09-12T01:15:02;22.14;118.99
16505;HTU21D;8365;51.030;4.696;2023-09-12T01:17:36;22.12;118.99
16505;HTU21D;8365;51.030;4.696;2023-09-12T01:20:09;22.14;118.99
16505;HTU21D;8365;51.030;4.696;2023-09-12T01:28:29;22.12;118.99
16505;HTU21D;8365;51.030;4.696;2023-09-12T01:31:02;22.11;118.99
16505;HTU21D;8365;51.030;4.696;2023-09-12T01:33:33;22.13;118.99
16505;HTU21D;8365;51.030;4.696;2023-09-12T01:36:04;22.10;118.99
16505;HTU21D;8365;51.030;4.696;2023-09-12T01:38:34;22.08;118.99
16505;HTU21D;8365;51.030;4.696;2023-09-12T01:41:05;22.05;118.99
16505;HTU21D;8365;51.030;4.696;2023-09-12T01:43:36;21.93;118.99
16505;HTU21D;8365;51.030;4.696;2023-09-12T01:46:09;21.67;118.99
16505;HTU21D;8365;51.030;4.696;2023-09-12T01:48:40;21.83;118.99
16505;HTU21D;8365;51.030;4.696;2023-09-12T01:51:11;21.74;118.99
16505;HTU21D;8365;51.030;4.696;2023-09-12T01:53:44;21.68;118.99
16505;HTU21D;8365;51.030;4.696;2023-09-12T01:56:16;21.74;118.99
16505;HTU21D;8365;51.030;4.696;2023-09-12T01:58:47;21.65;118.99
16505;HTU21D;8365;51.030;4.696;2023-09-12T02:01:18;21.67;118.99
16505;HTU21D;8365;51.030;4.696;2023-09-12T02:03:48;21.57;118.99
16505;HTU21D;8365;51.030;4.696;2023-09-12T02:06:19;21.54;118.99
16505;HTU21D;8365;51.030;4.696;2023-09-12T02:08:50;21.57;118.99
16505;HTU21D;8365;51.030;4.696;2023-09-12T02:11:20;21.44;118.99
16505;HTU21D;8365;51.030;4.696;2023-09-12T02:13:50;21.59;118.99
16505;HTU21D;8365;51.030;4.696;2023-09-12T02:16:21;21.55;118.99
16505;HTU21D;8365;51.030;4.696;2023-09-12T02:18:54;21.44;118.99
16505;HTU21D;8365;51.030;4.696;2023-09-12T02:21:25;21.36;118.99
16505;HTU21D;8365;51.030;4.696;2023-09-12T02:23:55;21.43;118.99
16505;HTU21D;8365;51.030;4.696;2023-09-12T02:26:26;21.50;118.99
16505;HTU21D;8365;51.030;4.696;2023-09-12T02:28:56;21.54;118.99
16505;HTU21D;8365;51.030;4.696;2023-09-12T02:31:27;21.54;118.99
16505;HTU21D;8365;51.030;4.696;2023-09-12T02:33:57;21.43;118.99
16505;HTU21D;8365;51.030;4.696;2023-09-12T02:36:30;21.54;118.99
16505;HTU21D;8365;51.030;4.696;2023-09-12T02:39:01;21.37;118.99
16505;HTU21D;8365;51.030;4.696;2023-09-12T02:41:33;21.39;118.99
16505;HTU21D;8365;51.030;4.696;2023-09-12T02:44:04;21.43;118.99
16505;HTU21D;8365;51.030;4.696;2023-09-12T02:46:34;21.33;118.99
16505;HTU21D;8365;51.030;4.696;2023-09-12T02:49:05;21.14;118.99
16505;HTU21D;8365;51.030;4.696;2023-09-12T02:51:41;21.17;118.99
16505;HTU21D;8365;51.030;4.696;2023-09-12T02:54:15;21.23;118.99
16505;HTU21D;8365;51.030;4.696;2023-09-12T02:56:47;21.34;118.99
16505;HTU21D;8365;51.030;4.696;2023-09-12T02:59:18;21.37;118.99
16505;HTU21D;8365;51.030;4.696;2023-09-12T03:01:50;21.43;118.99
16505;HTU21D;8365;51.030;4.696;2023-09-12T03:04:21;21.32;118.99
16505;HTU21D;8365;51.030;4.696;2023-09-12T03:06:51;21.38;118.99
16505;HTU21D;8365;51.030;4.696;2023-09-12T03:09:22;21.43;118.99
16505;HTU21D;8365;51.030;4.696;2023-09-12T03:11:53;21.48;118.99
16505;HTU21D;8365;51.030;4.696;2023-09-12T03:14:24;21.55;118.99
16505;HTU21D;8365;51.030;4.696;2023-09-12T03:16:54;21.53;118.99
16505;HTU21D;8365;51.030;4.696;2023-09-12T03:19:26;21.62;118.99
16505;HTU21D;8365;51.030;4.696;2023-09-12T03:21:56;21.62;118.99
16505;HTU21D;8365;51.030;4.696;2023-09-12T03:24:27;21.69;118.99
16505;HTU21D;8365;51.030;4.696;2023-09-12T03:26:59;21.66;118.99
16505;HTU21D;8365;51.030;4.696;2023-09-12T03:29:29;21.68;118.99
16505;HTU21D;8365;51.030;4.696;2023-09-12T03:32:00;21.73;118.99
16505;HTU21D;8365;51.030;4.696;2023-09-12T03:34:30;21.75;118.99
16505;HTU21D;8365;51.030;4.696;2023-09-12T03:37:00;21.75;118.99
16505;HTU21D;8365;51.030;4.696;2023-09-12T03:39:31;21.80;118.99
16505;HTU21D;8365;51.030;4.696;2023-09-12T03:42:02;21.83;118.99
16505;HTU21D;8365;51.030;4.696;2023-09-12T03:44:32;21.77;118.99
16505;HTU21D;8365;51.030;4.696;2023-09-12T03:47:03;21.85;118.99
16505;HTU21D;8365;51.030;4.696;2023-09-12T03:49:33;21.82;118.99
16505;HTU21D;8365;51.030;4.696;2023-09-12T03:52:04;21.83;118.99
16505;HTU21D;8365;51.030;4.696;2023-09-12T03:54:35;21.75;118.99
16505;HTU21D;8365;51.030;4.696;2023-09-12T03:57:05;21.75;118.99
16505;HTU21D;8365;51.030;4.696;2023-09-12T03:59:35;21.74;118.99
16505;HTU21D;8365;51.030;4.696;2023-09-12T04:02:06;21.60;118.99
16505;HTU21D;8365;51.030;4.696;2023-09-12T04:04:36;21.40;118.99
16505;HTU21D;8365;51.030;4.696;2023-09-12T04:07:07;21.45;118.99
16505;HTU21D;8365;51.030;4.696;2023-09-12T04:09:38;21.61;118.99
16505;HTU21D;8365;51.030;4.696;2023-09-12T04:12:08;21.62;118.99
16505;HTU21D;8365;51.030;4.696;2023-09-12T04:14:39;21.57;118.99
16505;HTU21D;8365;51.030;4.696;2023-09-12T04:17:11;21.60;118.99
16505;HTU21D;8365;51.030;4.696;2023-09-12T04:19:42;21.53;118.99
16505;HTU21D;8365;51.030;4.696;2023-09-12T04:22:13;21.45;118.99
16505;HTU21D;8365;51.030;4.696;2023-09-12T04:24:44;21.28;118.99
16505;HTU21D;8365;51.030;4.696;2023-09-12T04:27:14;21.55;118.99
16505;HTU21D;8365;51.030;4.696;2023-09-12T04:29:45;21.33;118.99
16505;HTU21D;8365;51.030;4.696;2023-09-12T04:32:15;21.24;118.99
16505;HTU21D;8365;51.030;4.696;2023-09-12T04:34:53;21.46;118.99
16505;HTU21D;8365;51.030;4.696;2023-09-12T04:37:25;21.40;118.99
16505;HTU21D;8365;51.030;4.696;2023-09-12T04:39:58;21.37;118.99
16505;HTU21D;8365;51.030;4.696;2023-09-12T04:42:28;21.43;118.99
16505;HTU21D;8365;51.030;4.696;2023-09-12T04:45:00;21.38;118.99
16505;HTU21D;8365;51.030;4.696;2023-09-12T04:47:30;21.46;118.99
16505;HTU21D;8365;51.030;4.696;2023-09-12T04:50:01;21.43;118.99
16505;HTU21D;8365;51.030;4.696;2023-09-12T04:52:32;21.24;118.99
16505;HTU21D;8365;51.030;4.696;2023-09-12T04:55:02;21.31;118.99
16505;HTU21D;8365;51.030;4.696;2023-09-12T04:57:33;21.30;118.99
16505;HTU21D;8365;51.030;4.696;2023-09-12T05:00:07;21.35;118.99
16505;HTU21D;8365;51.030;4.696;2023-09-12T05:02:38;21.36;118.99
16505;HTU21D;8365;51.030;4.696;2023-09-12T05:05:11;21.35;118.99
16505;HTU21D;8365;51.030;4.696;2023-09-12T05:07:41;21.42;118.99
16505;HTU21D;8365;51.030;4.696;2023-09-12T05:10:14;21.21;118.99
16505;HTU21D;8365;51.030;4.696;2023-09-12T05:12:45;21.07;118.99
16505;HTU21D;8365;51.030;4.696;2023-09-12T05:15:15;21.18;118.99
16505;HTU21D;8365;51.030;4.696;2023-09-12T05:17:46;21.16;118.99
16505;HTU21D;8365;51.030;4.696;2023-09-12T05:20:16;21.16;118.99
16505;HTU21D;8365;51.030;4.696;2023-09-12T05:22:47;21.19;118.99
16505;HTU21D;8365;51.030;4.696;2023-09-12T05:25:17;21.35;118.99
16505;HTU21D;8365;51.030;4.696;2023-09-12T05:27:47;21.37;118.99
16505;HTU21D;8365;51.030;4.696;2023-09-12T05:30:18;21.45;118.99
16505;HTU21D;8365;51.030;4.696;2023-09-12T05:32:49;21.49;118.99
16505;HTU21D;8365;51.030;4.696;2023-09-12T05:35:19;21.38;118.99
16505;HTU21D;8365;51.030;4.696;2023-09-12T05:37:50;21.40;118.99
16505;HTU21D;8365;51.030;4.696;2023-09-12T05:40:21;21.30;118.99
16505;HTU21D;8365;51.030;4.696;2023-09-12T05:42:51;21.28;118.99
16505;HTU21D;8365;51.030;4.696;2023-09-12T05:45:22;21.23;118.99
16505;HTU21D;8365;51.030;4.696;2023-09-12T05:47:55;21.15;118.99
16505;HTU21D;8365;51.030;4.696;2023-09-12T05:50:26;21.17;118.99
16505;HTU21D;8365;51.030;4.696;2023-09-12T05:52:59;21.15;118.99
16505;HTU21D;8365;51.030;4.696;2023-09-12T05:55:31;21.21;118.99
16505;HTU21D;8365;51.030;4.696;2023-09-12T05:58:02;21.13;118.99
16505;HTU21D;8365;51.030;4.696;2023-09-12T06:00:35;21.23;118.99
16505;HTU21D;8365;51.030;4.696;2023-09-12T06:03:08;21.16;118.99
16505;HTU21D;8365;51.030;4.696;2023-09-12T06:05:41;20.93;118.99
16505;HTU21D;8365;51.030;4.696;2023-09-12T06:08:12;20.95;118.99
16505;HTU21D;8365;51.030;4.696;2023-09-12T06:10:44;20.72;118.99
16505;HTU21D;8365;51.030;4.696;2023-09-12T06:13:15;20.96;118.99
16505;HTU21D;8365;51.030;4.696;2023-09-12T06:15:45;21.06;118.99
16505;HTU21D;8365;51.030;4.696;2023-09-12T06:18:20;21.00;118.99
16505;HTU21D;8365;51.030;4.696;2023-09-12T06:20:51;20.89;118.99
16505;HTU21D;8365;51.030;4.696;2023-09-12T06:23:22;20.95;118.99
16505;HTU21D;8365;51.030;4.696;2023-09-12T06:25:52;21.01;118.99
16505;HTU21D;8365;51.030;4.696;2023-09-12T06:28:30;21.00;118.99
16505;HTU21D;8365;51.030;4.696;2023-09-12T06:31:00;20.78;118.99
16505;HTU21D;8365;51.030;4.696;2023-09-12T06:33:31;20.90;118.99
16505;HTU21D;8365;51.030;4.696;2023-09-12T06:36:01;20.85;118.99
16505;HTU21D;8365;51.030;4.696;2023-09-12T06:38:32;21.00;118.99
16505;HTU21D;8365;51.030;4.696;2023-09-12T06:41:03;21.21;118.99
16505;HTU21D;8365;51.030;4.696;2023-09-12T06:43:34;21.28;118.99
16505;HTU21D;8365;51.030;4.696;2023-09-12T06:46:04;21.52;118.99
16505;HTU21D;8365;51.030;4.696;2023-09-12T06:48:35;21.53;118.99
16505;HTU21D;8365;51.030;4.696;2023-09-12T06:51:08;21.62;118.99
16505;HTU21D;8365;51.030;4.696;2023-09-12T06:53:38;21.81;118.99
16505;HTU21D;8365;51.030;4.696;2023-09-12T06:56:09;21.73;118.99
16505;HTU21D;8365;51.030;4.696;2023-09-12T06:58:39;21.72;118.99
16505;HTU21D;8365;51.030;4.696;2023-09-12T07:01:10;21.62;118.99
16505;HTU21D;8365;51.030;4.696;2023-09-12T07:03:40;21.69;118.99
16505;HTU21D;8365;51.030;4.696;2023-09-12T07:06:11;21.77;118.99
16505;HTU21D;8365;51.030;4.696;2023-09-12T07:08:41;21.73;118.99
16505;HTU21D;8365;51.030;4.696;2023-09-12T07:11:12;21.92;118.99
16505;HTU21D;8365;51.030;4.696;2023-09-12T07:13:42;22.11;118.99
16505;HTU21D;8365;51.030;4.696;2023-09-12T07:16:13;22.12;118.99
16505;HTU21D;8365;51.030;4.696;2023-09-12T07:18:43;22.08;118.99
16505;HTU21D;8365;51.030;4.696;2023-09-12T07:21:14;22.29;118.99
16505;HTU21D;8365;51.030;4.696;2023-09-12T07:23:44;22.52;118.99
16505;HTU21D;8365;51.030;4.696;2023-09-12T07:26:15;22.55;118.99
16505;HTU21D;8365;51.030;4.696;2023-09-12T07:28:45;22.78;118.99
16505;HTU21D;8365;51.030;4.696;2023-09-12T07:31:18;22.99;118.99
16505;HTU21D;8365;51.030;4.696;2023-09-12T07:33:49;23.09;118.99
16505;HTU21D;8365;51.030;4.696;2023-09-12T07:36:19;23.05;118.99
16505;HTU21D;8365;51.030;4.696;2023-09-12T07:38:50;22.96;118.99
16505;HTU21D;8365;51.030;4.696;2023-09-12T07:41:22;23.16;118.99
16505;HTU21D;8365;51.030;4.696;2023-09-12T07:43:53;23.14;118.99
16505;HTU21D;8365;51.030;4.696;2023-09-12T07:46:26;23.08;118.99
16505;HTU21D;8365;51.030;4.696;2023-09-12T07:48:59;23.17;118.99
16505;HTU21D;8365;51.030;4.696;2023-09-12T07:51:29;23.25;118.99
16505;HTU21D;8365;51.030;4.696;2023-09-12T07:53:59;23.81;118.99
16505;HTU21D;8365;51.030;4.696;2023-09-12T07:56:32;24.05;118.99
16505;HTU21D;8365;51.030;4.696;2023-09-12T07:59:03;24.26;116.34
16505;HTU21D;8365;51.030;4.696;2023-09-12T08:01:35;24.91;113.52
16505;HTU21D;8365;51.030;4.696;2023-09-12T08:04:08;25.23;111.35
16505;HTU21D;8365;51.030;4.696;2023-09-12T08:06:39;26.08;106.02
16505;HTU21D;8365;51.030;4.696;2023-09-12T08:09:09;25.97;103.09
16505;HTU21D;8365;51.030;4.696;2023-09-12T08:11:40;26.03;103.97
16505;HTU21D;8365;51.030;4.696;2023-09-12T08:14:10;25.76;105.39
16505;HTU21D;8365;51.030;4.696;2023-09-12T08:16:41;25.74;105.36
16505;HTU21D;8365;51.030;4.696;2023-09-12T08:19:11;25.34;107.75
16505;HTU21D;8365;51.030;4.696;2023-09-12T08:21:42;25.21;108.29
16505;HTU21D;8365;51.030;4.696;2023-09-12T08:24:15;25.23;107.24
16505;HTU21D;8365;51.030;4.696;2023-09-12T08:26:45;24.82;107.85
16505;HTU21D;8365;51.030;4.696;2023-09-12T08:29:18;24.56;110.02
16505;HTU21D;8365;51.030;4.696;2023-09-12T08:31:48;24.76;108.97
16505;HTU21D;8365;51.030;4.696;2023-09-12T08:34:20;25.19;107.49
16505;HTU21D;8365;51.030;4.696;2023-09-12T08:36:51;25.73;105.31
16505;HTU21D;8365;51.030;4.696;2023-09-12T08:39:26;26.43;101.67
16505;HTU21D;8365;51.030;4.696;2023-09-12T08:41:56;26.35;99.59
16505;HTU21D;8365;51.030;4.696;2023-09-12T08:44:27;26.94;95.00
16505;HTU21D;8365;51.030;4.696;2023-09-12T08:47:00;27.01;95.59
16505;HTU21D;8365;51.030;4.696;2023-09-12T08:49:34;27.00;94.83
16505;HTU21D;8365;51.030;4.696;2023-09-12T08:52:05;27.01;94.11
16505;HTU21D;8365;51.030;4.696;2023-09-12T08:54:36;27.96;91.53
16505;HTU21D;8365;51.030;4.696;2023-09-12T08:57:07;28.41;89.09
16505;HTU21D;8365;51.030;4.696;2023-09-12T08:59:39;29.09;86.61
16505;HTU21D;8365;51.030;4.696;2023-09-12T09:02:13;29.47;83.58
16505;HTU21D;8365;51.030;4.696;2023-09-12T09:04:46;28.90;86.09
16505;HTU21D;8365;51.030;4.696;2023-09-12T09:07:21;29.07;86.30
16505;HTU21D;8365;51.030;4.696;2023-09-12T09:09:52;29.18;86.01
16505;HTU21D;8365;51.030;4.696;2023-09-12T09:12:23;28.58;88.32
16505;HTU21D;8365;51.030;4.696;2023-09-12T09:14:54;28.49;89.60
16505;HTU21D;8365;51.030;4.696;2023-09-12T09:17:24;28.43;88.35
16505;HTU21D;8365;51.030;4.696;2023-09-12T09:19:55;28.37;89.38
16505;HTU21D;8365;51.030;4.696;2023-09-12T09:22:26;30.18;83.23
16505;HTU21D;8365;51.030;4.696;2023-09-12T09:25:10;31.09;79.48
16505;HTU21D;8365;51.030;4.696;2023-09-12T09:27:42;31.15;76.69
16505;HTU21D;8365;51.030;4.696;2023-09-12T09:30:12;31.78;73.75
16505;HTU21D;8365;51.030;4.696;2023-09-12T09:32:43;31.53;72.11
16505;HTU21D;8365;51.030;4.696;2023-09-12T09:35:15;31.08;73.41
16505;HTU21D;8365;51.030;4.696;2023-09-12T09:37:45;29.75;76.89
16505;HTU21D;8365;51.030;4.696;2023-09-12T09:40:16;30.40;76.18
16505;HTU21D;8365;51.030;4.696;2023-09-12T09:42:46;30.98;73.34
16505;HTU21D;8365;51.030;4.696;2023-09-12T09:45:17;31.69;70.70
16505;HTU21D;8365;51.030;4.696;2023-09-12T09:47:49;32.35;67.90
16505;HTU21D;8365;51.030;4.696;2023-09-12T09:50:20;32.33;69.19
16505;HTU21D;8365;51.030;4.696;2023-09-12T09:52:55;32.02;65.24
16505;HTU21D;8365;51.030;4.696;2023-09-12T09:55:26;31.74;66.53
16505;HTU21D;8365;51.030;4.696;2023-09-12T09:57:56;32.18;66.23
16505;HTU21D;8365;51.030;4.696;2023-09-12T10:00:29;30.99;67.92
16505;HTU21D;8365;51.030;4.696;2023-09-12T10:02:59;32.55;63.21
16505;HTU21D;8365;51.030;4.696;2023-09-12T10:05:37;32.31;64.85
16505;HTU21D;8365;51.030;4.696;2023-09-12T10:08:07;32.74;62.53
16505;HTU21D;8365;51.030;4.696;2023-09-12T10:10:41;32.78;64.39
16505;HTU21D;8365;51.030;4.696;2023-09-12T10:13:12;32.68;64.07
16505;HTU21D;8365;51.030;4.696;2023-09-12T10:15:44;32.39;62.54
16505;HTU21D;8365;51.030;4.696;2023-09-12T10:18:19;32.76;61.92
16505;HTU21D;8365;51.030;4.696;2023-09-12T10:20:55;33.35;61.10
16505;HTU21D;8365;51.030;4.696;2023-09-12T10:23:34;33.25;60.99
16505;HTU21D;8365;51.030;4.696;2023-09-12T10:26:13;33.00;61.85
16505;HTU21D;8365;51.030;4.696;2023-09-12T10:28:46;33.57;60.27
16505;HTU21D;8365;51.030;4.696;2023-09-12T10:31:19;33.82;58.88
16505;HTU21D;8365;51.030;4.696;2023-09-12T10:33:50;33.36;58.66
16505;HTU21D;8365;51.030;4.696;2023-09-12T10:36:22;32.68;61.61
16505;HTU21D;8365;51.030;4.696;2023-09-12T10:38:56;33.15;61.19
16505;HTU21D;8365;51.030;4.696;2023-09-12T10:41:29;32.76;60.10
16505;HTU21D;8365;51.030;4.696;2023-09-12T10:44:00;32.59;60.11
16505;HTU21D;8365;51.030;4.696;2023-09-12T10:46:31;31.89;63.95
16505;HTU21D;8365;51.030;4.696;2023-09-12T10:49:05;31.92;62.70
16505;HTU21D;8365;51.030;4.696;2023-09-12T10:51:44;31.24;66.01
16505;HTU21D;8365;51.030;4.696;2023-09-12T10:54:24;31.54;65.26
16505;HTU21D;8365;51.030;4.696;2023-09-12T10:57:09;30.87;66.52
16505;HTU21D;8365;51.030;4.696;2023-09-12T11:02:37;29.92;71.55
16505;HTU21D;8365;51.030;4.696;2023-09-12T11:08:01;32.38;63.52
16505;HTU21D;8365;51.030;4.696;2023-09-12T11:10:34;32.13;61.66
16505;HTU21D;8365;51.030;4.696;2023-09-12T11:13:05;32.50;62.24
16505;HTU21D;8365;51.030;4.696;2023-09-12T11:15:38;33.40;57.30
16505;HTU21D;8365;51.030;4.696;2023-09-12T11:18:26;34.17;56.84
16505;HTU21D;8365;51.030;4.696;2023-09-12T11:21:00;33.95;56.23
16505;HTU21D;8365;51.030;4.696;2023-09-12T11:23:33;35.23;51.88
16505;HTU21D;8365;51.030;4.696;2023-09-12T11:26:06;36.12;49.48
16505;HTU21D;8365;51.030;4.696;2023-09-12T11:28:38;35.48;49.08
16505;HTU21D;8365;51.030;4.696;2023-09-12T11:31:09;36.13;49.21
16505;HTU21D;8365;51.030;4.696;2023-09-12T11:33:40;35.80;50.73
16505;HTU21D;8365;51.030;4.696;2023-09-12T11:36:13;35.40;51.56
16505;HTU21D;8365;51.030;4.696;2023-09-12T11:38:49;34.74;53.99
16505;HTU21D;8365;51.030;4.696;2023-09-12T11:41:38;34.30;53.85
16505;HTU21D;8365;51.030;4.696;2023-09-12T11:44:09;34.69;53.46
16505;HTU21D;8365;51.030;4.696;2023-09-12T11:46:41;35.86;51.49
16505;HTU21D;8365;51.030;4.696;2023-09-12T11:49:12;36.70;49.67
16505;HTU21D;8365;51.030;4.696;2023-09-12T11:51:50;37.63;46.02
16505;HTU21D;8365;51.030;4.696;2023-09-12T11:54:28;37.46;44.17
16505;HTU21D;8365;51.030;4.696;2023-09-12T11:56:59;37.47;44.64
16505;HTU21D;8365;51.030;4.696;2023-09-12T11:59:31;37.65;43.18
16505;HTU21D;8365;51.030;4.696;2023-09-12T12:02:06;36.15;46.54
16505;HTU21D;8365;51.030;4.696;2023-09-12T12:04:37;37.18;45.54
16505;HTU21D;8365;51.030;4.696;2023-09-12T12:07:10;35.80;47.44
16505;HTU21D;8365;51.030;4.696;2023-09-12T12:09:43;36.40;47.88
16505;HTU21D;8365;51.030;4.696;2023-09-12T12:12:15;36.33;45.74
16505;HTU21D;8365;51.030;4.696;2023-09-12T12:14:45;36.71;46.78
16505;HTU21D;8365;51.030;4.696;2023-09-12T12:17:16;37.32;44.19
16505;HTU21D;8365;51.030;4.696;2023-09-12T12:19:46;37.13;45.46
16505;HTU21D;8365;51.030;4.696;2023-09-12T12:22:17;38.09;43.83
16505;HTU21D;8365;51.030;4.696;2023-09-12T12:24:49;37.92;43.64
16505;HTU21D;8365;51.030;4.696;2023-09-12T12:27:21;37.99;42.99
16505;HTU21D;8365;51.030;4.696;2023-09-12T12:29:53;37.86;42.84
16505;HTU21D;8365;51.030;4.696;2023-09-12T12:32:24;36.67;44.31
16505;HTU21D;8365;51.030;4.696;2023-09-12T12:34:57;37.08;43.68
16505;HTU21D;8365;51.030;4.696;2023-09-12T12:37:30;37.55;42.54
16505;HTU21D;8365;51.030;4.696;2023-09-12T12:40:01;36.71;44.33
16505;HTU21D;8365;51.030;4.696;2023-09-12T12:42:34;35.56;46.26
16505;HTU21D;8365;51.030;4.696;2023-09-12T12:45:13;34.81;46.98
16505;HTU21D;8365;51.030;4.696;2023-09-12T12:47:44;34.46;48.65
16505;HTU21D;8365;51.030;4.696;2023-09-12T12:50:17;34.21;51.75
16505;HTU21D;8365;51.030;4.696;2023-09-12T12:52:50;35.14;49.67
16505;HTU21D;8365;51.030;4.696;2023-09-12T12:55:21;34.80;50.04
16505;HTU21D;8365;51.030;4.696;2023-09-12T12:57:55;34.98;49.18
16505;HTU21D;8365;51.030;4.696;2023-09-12T13:00:26;34.66;49.41
16505;HTU21D;8365;51.030;4.696;2023-09-12T13:02:56;34.61;51.66
16505;HTU21D;8365;51.030;4.696;2023-09-12T13:05:30;34.06;51.30
16505;HTU21D;8365;51.030;4.696;2023-09-12T13:08:01;34.38;49.63
16505;HTU21D;8365;51.030;4.696;2023-09-12T13:10:32;33.58;51.72
16505;HTU21D;8365;51.030;4.696;2023-09-12T13:13:05;33.78;52.42
16505;HTU21D;8365;51.030;4.696;2023-09-12T13:15:35;33.03;53.75
16505;HTU21D;8365;51.030;4.696;2023-09-12T13:18:06;33.04;54.31
16505;HTU21D;8365;51.030;4.696;2023-09-12T13:20:39;32.74;54.91
16505;HTU21D;8365;51.030;4.696;2023-09-12T13:23:09;32.90;54.66
16505;HTU21D;8365;51.030;4.696;2023-09-12T13:25:40;32.57;54.62
16505;HTU21D;8365;51.030;4.696;2023-09-12T13:28:10;32.40;56.26
16505;HTU21D;8365;51.030;4.696;2023-09-12T13:30:40;31.90;56.42
16505;HTU21D;8365;51.030;4.696;2023-09-12T13:33:12;31.89;57.20
16505;HTU21D;8365;51.030;4.696;2023-09-12T13:35:48;31.75;59.96
16505;HTU21D;8365;51.030;4.696;2023-09-12T13:38:18;31.60;59.64
16505;HTU21D;8365;51.030;4.696;2023-09-12T13:40:49;31.19;61.90
16505;HTU21D;8365;51.030;4.696;2023-09-12T13:43:20;31.39;60.54
16505;HTU21D;8365;51.030;4.696;2023-09-12T13:45:50;30.67;63.60
16505;HTU21D;8365;51.030;4.696;2023-09-12T13:48:21;30.53;62.56
16505;HTU21D;8365;51.030;4.696;2023-09-12T13:50:51;30.46;63.18
16505;HTU21D;8365;51.030;4.696;2023-09-12T13:53:24;29.53;65.23
16505;HTU21D;8365;51.030;4.696;2023-09-12T13:55:55;29.53;66.16
16505;HTU21D;8365;51.030;4.696;2023-09-12T13:58:27;29.34;66.65
16505;HTU21D;8365;51.030;4.696;2023-09-12T14:00:57;29.38;65.02
16505;HTU21D;8365;51.030;4.696;2023-09-12T14:03:28;29.39;67.05
16505;HTU21D;8365;51.030;4.696;2023-09-12T14:05:58;29.47;67.12
16505;HTU21D;8365;51.030;4.696;2023-09-12T14:08:29;29.45;67.35
16505;HTU21D;8365;51.030;4.696;2023-09-12T14:10:59;29.47;68.77
16505;HTU21D;8365;51.030;4.696;2023-09-12T14:13:29;29.04;68.39
16505;HTU21D;8365;51.030;4.696;2023-09-12T14:16:00;28.92;68.05
16505;HTU21D;8365;51.030;4.696;2023-09-12T14:18:30;28.75;69.27
16505;HTU21D;8365;51.030;4.696;2023-09-12T14:21:01;28.69;69.78
16505;HTU21D;8365;51.030;4.696;2023-09-12T14:23:31;28.50;71.58
16505;HTU21D;8365;51.030;4.696;2023-09-12T14:26:02;28.53;72.14
16505;HTU21D;8365;51.030;4.696;2023-09-12T14:28:32;28.54;74.38
16505;HTU21D;8365;51.030;4.696;2023-09-12T14:31:04;28.42;75.00
16505;HTU21D;8365;51.030;4.696;2023-09-12T14:33:36;28.06;76.18
16505;HTU21D;8365;51.030;4.696;2023-09-12T14:36:10;27.86;76.40
16505;HTU21D;8365;51.030;4.696;2023-09-12T14:38:43;27.83;76.64
16505;HTU21D;8365;51.030;4.696;2023-09-12T14:41:16;27.95;77.20
16505;HTU21D;8365;51.030;4.696;2023-09-12T14:43:46;27.88;76.36
16505;HTU21D;8365;51.030;4.696;2023-09-12T14:46:17;27.82;76.87
16505;HTU21D;8365;51.030;4.696;2023-09-12T14:48:47;27.76;78.80
16505;HTU21D;8365;51.030;4.696;2023-09-12T14:51:17;27.64;77.92
16505;HTU21D;8365;51.030;4.696;2023-09-12T14:53:48;27.55;77.68
16505;HTU21D;8365;51.030;4.696;2023-09-12T14:56:19;27.46;78.05
16505;HTU21D;8365;51.030;4.696;2023-09-12T14:58:49;27.47;79.34
16505;HTU21D;8365;51.030;4.696;2023-09-12T15:01:19;27.54;79.63
16505;HTU21D;8365;51.030;4.696;2023-09-12T15:03:51;27.52;80.77
16505;HTU21D;8365;51.030;4.696;2023-09-12T15:06:21;27.51;80.59
16505;HTU21D;8365;51.030;4.696;2023-09-12T15:08:52;27.38;81.47
16505;HTU21D;8365;51.030;4.696;2023-09-12T15:11:22;27.29;80.44
16505;HTU21D;8365;51.030;4.696;2023-09-12T15:13:53;26.82;80.12
16505;HTU21D;8365;51.030;4.696;2023-09-12T15:16:25;26.60;80.18
16505;HTU21D;8365;51.030;4.696;2023-09-12T15:18:55;26.80;80.22
16505;HTU21D;8365;51.030;4.696;2023-09-12T15:21:26;26.87;80.19
16505;HTU21D;8365;51.030;4.696;2023-09-12T15:23:56;26.81;79.98
16505;HTU21D;8365;51.030;4.696;2023-09-12T15:26:27;26.79;80.37
16505;HTU21D;8365;51.030;4.696;2023-09-12T15:28:59;26.63;79.51
16505;HTU21D;8365;51.030;4.696;2023-09-12T15:31:31;26.53;80.01
16505;HTU21D;8365;51.030;4.696;2023-09-12T15:34:02;26.61;81.30
16505;HTU21D;8365;51.030;4.696;2023-09-12T15:36:39;26.83;80.72
16505;HTU21D;8365;51.030;4.696;2023-09-12T15:39:11;26.95;80.62
16505;HTU21D;8365;51.030;4.696;2023-09-12T15:41:41;26.78;81.44
16505;HTU21D;8365;51.030;4.696;2023-09-12T15:44:12;26.32;81.39
16505;HTU21D;8365;51.030;4.696;2023-09-12T15:46:42;26.12;82.05
16505;HTU21D;8365;51.030;4.696;2023-09-12T15:49:13;26.13;81.69
16505;HTU21D;8365;51.030;4.696;2023-09-12T15:51:43;25.79;84.44
16505;HTU21D;8365;51.030;4.696;2023-09-12T15:54:13;25.94;84.54
16505;HTU21D;8365;51.030;4.696;2023-09-12T15:56:44;25.76;86.33
16505;HTU21D;8365;51.030;4.696;2023-09-12T15:59:14;25.84;85.32
16505;HTU21D;8365;51.030;4.696;2023-09-12T16:01:45;25.83;86.15